createdAt,value
2018-04-30T00:00:02.518Z,19.34
2018-04-30T00:02:31.166Z,19.40
2018-04-30T00:05:00.932Z,19.47
2018-04-30T00:07:30.216Z,19.43
2018-04-30T00:10:01.717Z,19.35
2018-04-30T00:12:33.510Z,19.36
2018-04-30T00:15:02.185Z,19.39
2018-04-30T00:17:31.719Z,19.37
2018-04-30T00:20:01.132Z,19.36
2018-04-30T00:22:32.000Z,19.40
2018-04-30T00:25:01.815Z,19.43
2018-04-30T00:27:30.827Z,19.44
2018-04-30T00:30:01.302Z,19.41
2018-04-30T00:32:31.046Z,19.45
2018-04-30T00:35:01.525Z,19.24
2018-04-30T00:37:34.059Z,19.32
2018-04-30T00:40:05.275Z,19.25
2018-04-30T00:42:33.912Z,19.22
2018-04-30T00:45:03.933Z,19.27
2018-04-30T00:47:34.016Z,19.25
2018-04-30T00:50:01.837Z,19.20
2018-04-30T00:52:30.219Z,19.19
2018-04-30T00:54:59.794Z,19.15
2018-04-30T00:57:28.148Z,19.08
2018-04-30T00:59:59.081Z,19.05
2018-04-30T01:02:30.232Z,18.94
2018-04-30T01:04:57.868Z,18.97
2018-04-30T01:07:29.843Z,18.97
2018-04-30T01:10:00.192Z,18.85
2018-04-30T01:12:33.086Z,18.78
2018-04-30T01:15:01.892Z,18.70
2018-04-30T01:17:34.689Z,18.76
2018-04-30T01:20:04.823Z,18.69
2018-04-30T01:22:37.971Z,18.73
2018-04-30T01:25:09.072Z,18.73
2018-04-30T01:27:39.907Z,18.70
2018-04-30T01:30:11.171Z,18.76
2018-04-30T01:32:43.269Z,18.71
2018-04-30T01:35:16.008Z,18.56
2018-04-30T01:37:43.886Z,18.64
2018-04-30T01:40:16.513Z,18.65
2018-04-30T01:42:45.165Z,18.64
2018-04-30T01:45:14.540Z,18.63
2018-04-30T01:47:43.433Z,18.67
2018-04-30T01:50:14.741Z,18.67
2018-04-30T01:52:45.916Z,18.63
2018-04-30T01:55:15.231Z,18.50
2018-04-30T01:57:45.062Z,18.56
2018-04-30T02:00:14.579Z,18.55
2018-04-30T02:02:46.058Z,18.49
2018-04-30T02:05:14.993Z,18.37
2018-04-30T02:07:43.733Z,18.38
2018-04-30T02:10:13.507Z,18.39
2018-04-30T02:12:43.130Z,18.42
2018-04-30T02:15:14.538Z,18.38
2018-04-30T02:17:45.485Z,18.29
2018-04-30T02:20:19.948Z,18.33
2018-04-30T02:22:50.044Z,18.37
2018-04-30T02:25:19.837Z,18.37
2018-04-30T02:27:49.402Z,18.38
2018-04-30T02:30:21.728Z,18.33
2018-04-30T02:32:49.075Z,18.38
2018-04-30T02:35:19.269Z,18.28
2018-04-30T02:37:48.637Z,18.19
2018-04-30T02:40:22.811Z,18.07
2018-04-30T02:42:57.161Z,18.12
2018-04-30T02:45:27.432Z,18.13
2018-04-30T02:47:56.331Z,18.16
2018-04-30T02:50:28.879Z,18.12
2018-04-30T02:52:59.285Z,18.15
2018-04-30T02:55:30.759Z,18.17
2018-04-30T02:58:00.077Z,18.15
2018-04-30T03:00:29.896Z,18.13
2018-04-30T03:03:06.039Z,18.11
2018-04-30T03:05:32.892Z,18.07
2018-04-30T03:08:01.305Z,18.02
2018-04-30T03:10:32.042Z,18.01
2018-04-30T03:12:59.993Z,17.98
2018-04-30T03:15:32.082Z,17.92
2018-04-30T03:18:00.930Z,17.76
2018-04-30T03:20:32.504Z,17.70
2018-04-30T03:23:00.819Z,17.70
2018-04-30T03:25:29.455Z,17.67
2018-04-30T03:28:01.648Z,17.60
2018-04-30T03:30:30.554Z,17.61
2018-04-30T03:33:01.812Z,17.62
2018-04-30T03:35:30.148Z,17.68
2018-04-30T03:38:00.185Z,17.68
2018-04-30T03:40:29.204Z,17.73
2018-04-30T03:42:59.772Z,17.73
2018-04-30T03:45:32.014Z,17.82
2018-04-30T03:48:00.480Z,17.80
2018-04-30T03:50:32.317Z,17.76
2018-04-30T03:53:02.179Z,17.70
2018-04-30T03:55:30.269Z,17.73
2018-04-30T03:58:00.061Z,17.68
2018-04-30T04:00:41.400Z,17.68
2018-04-30T04:03:24.681Z,17.71
2018-04-30T04:06:04.909Z,17.70
2018-04-30T04:08:33.508Z,17.71
2018-04-30T04:11:04.930Z,17.71
2018-04-30T04:13:37.489Z,17.76
2018-04-30T04:16:08.954Z,17.76
2018-04-30T04:18:46.662Z,17.83
2018-04-30T04:21:18.020Z,17.84
2018-04-30T04:23:57.031Z,17.85
2018-04-30T04:26:26.588Z,17.83
2018-04-30T04:28:57.151Z,17.91
2018-04-30T04:31:43.391Z,17.95
2018-04-30T04:34:17.489Z,18.04
2018-04-30T04:36:45.844Z,18.12
2018-04-30T04:39:14.389Z,18.27
2018-04-30T04:41:44.607Z,18.29
2018-04-30T04:44:17.286Z,18.28
2018-04-30T04:46:48.145Z,18.41
2018-04-30T04:49:16.527Z,18.44
2018-04-30T04:51:48.509Z,18.51
2018-04-30T04:54:17.704Z,18.48
2018-04-30T04:56:48.965Z,18.52
2018-04-30T04:59:15.459Z,18.56
2018-04-30T05:01:41.998Z,18.63
2018-04-30T05:04:08.736Z,18.71
2018-04-30T05:06:35.152Z,18.76
2018-04-30T05:09:01.756Z,18.84
2018-04-30T05:11:28.330Z,18.88
2018-04-30T05:13:54.830Z,18.83
2018-04-30T05:16:21.420Z,18.87
2018-04-30T05:18:47.977Z,18.90
2018-04-30T05:21:14.509Z,18.91
2018-04-30T05:23:41.148Z,18.96
2018-04-30T05:26:07.661Z,18.88
2018-04-30T05:28:34.059Z,18.88
2018-04-30T05:31:00.559Z,18.84
2018-04-30T05:33:26.982Z,18.82
2018-04-30T05:35:53.617Z,18.81
2018-04-30T05:38:20.082Z,18.91
2018-04-30T05:40:46.486Z,19.03
2018-04-30T05:43:12.960Z,19.14
2018-04-30T05:45:39.400Z,19.13
2018-04-30T05:48:05.975Z,19.12
2018-04-30T05:50:32.385Z,19.16
2018-04-30T05:52:58.952Z,19.22
2018-04-30T05:55:25.441Z,19.18
2018-04-30T05:57:52.024Z,19.27
2018-04-30T06:00:18.620Z,19.33
2018-04-30T06:02:45.210Z,19.30
2018-04-30T06:05:11.663Z,19.30
2018-04-30T06:10:11.249Z,19.39
2018-04-30T06:12:37.801Z,19.46
2018-04-30T06:15:04.215Z,19.52
2018-04-30T06:17:30.822Z,19.63
2018-04-30T06:19:57.520Z,19.55
2018-04-30T06:22:24.066Z,19.55
2018-04-30T06:24:50.506Z,19.60
2018-04-30T06:27:16.977Z,19.67
2018-04-30T06:29:43.458Z,19.74
2018-04-30T06:32:09.970Z,19.85
2018-04-30T06:34:36.512Z,19.86
2018-04-30T06:37:03.117Z,19.96
2018-04-30T06:39:29.488Z,20.07
2018-04-30T06:41:55.921Z,20.21
2018-04-30T06:44:22.373Z,20.39
2018-04-30T06:46:48.907Z,20.44
2018-04-30T06:49:15.411Z,20.41
2018-04-30T06:51:41.855Z,20.48
2018-04-30T06:54:08.361Z,20.63
2018-04-30T06:56:34.767Z,20.65
2018-04-30T06:59:01.185Z,20.72
2018-04-30T07:01:27.783Z,20.78
2018-04-30T07:03:54.259Z,20.58
2018-04-30T07:06:20.769Z,20.59
2018-04-30T07:08:47.344Z,20.68
2018-04-30T07:11:13.699Z,20.70
2018-04-30T07:13:40.392Z,20.78
2018-04-30T07:16:06.750Z,20.86
2018-04-30T07:18:33.260Z,20.98
2018-04-30T07:20:59.646Z,21.06
2018-04-30T07:23:26.038Z,21.13
2018-04-30T07:25:52.712Z,21.13
2018-04-30T07:28:19.102Z,21.20
2018-04-30T07:30:45.478Z,21.21
2018-04-30T07:33:12.019Z,21.22
2018-04-30T07:35:38.417Z,21.01
2018-04-30T07:38:05.077Z,21.05
2018-04-30T07:40:31.501Z,21.09
2018-04-30T07:42:58.057Z,21.05
2018-04-30T07:45:24.497Z,21.17
2018-04-30T07:47:50.954Z,21.28
2018-04-30T07:50:17.505Z,21.28
2018-04-30T07:52:43.945Z,21.29
2018-04-30T07:55:10.330Z,21.36
2018-04-30T07:57:36.685Z,21.37
2018-04-30T08:00:03.292Z,21.43
2018-04-30T08:02:29.792Z,21.46
2018-04-30T08:04:56.267Z,21.46
2018-04-30T08:07:22.761Z,21.51
2018-04-30T08:09:49.344Z,21.28
2018-04-30T08:12:15.760Z,21.47
2018-04-30T08:14:42.150Z,21.60
2018-04-30T08:17:08.588Z,21.72
2018-04-30T08:19:35.009Z,21.85
2018-04-30T08:22:01.510Z,21.79
2018-04-30T08:24:27.920Z,21.84
2018-04-30T08:26:54.515Z,21.93
2018-04-30T08:29:21.122Z,22.05
2018-04-30T08:31:47.543Z,22.10
2018-04-30T08:34:14.045Z,22.12
2018-04-30T08:36:40.516Z,22.12
2018-04-30T08:39:07.248Z,22.09
2018-04-30T08:41:33.617Z,22.07
2018-04-30T08:44:00.173Z,21.99
2018-04-30T08:46:26.604Z,22.04
2018-04-30T08:48:53.113Z,22.23
2018-04-30T08:51:19.621Z,22.32
2018-04-30T08:53:46.105Z,22.46
2018-04-30T08:56:12.660Z,22.59
2018-04-30T08:58:39.163Z,22.70
2018-04-30T09:01:05.604Z,22.65
2018-04-30T09:03:32.292Z,22.60
2018-04-30T09:05:58.841Z,22.56
2018-04-30T09:08:25.216Z,22.61
2018-04-30T09:10:51.794Z,22.62
2018-04-30T09:13:18.292Z,22.73
2018-04-30T09:15:44.835Z,22.69
2018-04-30T09:18:11.233Z,22.78
2018-04-30T09:20:37.765Z,22.91
2018-04-30T09:23:04.300Z,22.94
2018-04-30T09:25:30.863Z,23.04
2018-04-30T09:27:57.439Z,23.07
2018-04-30T09:30:24.008Z,23.13
2018-04-30T09:32:50.462Z,23.18
2018-04-30T09:35:16.950Z,23.13
2018-04-30T09:37:43.635Z,23.17
2018-04-30T09:40:10.180Z,23.24
2018-04-30T09:42:36.825Z,23.34
2018-04-30T09:45:03.295Z,23.47
2018-04-30T09:47:29.652Z,23.46
2018-04-30T09:49:56.158Z,23.56
2018-04-30T09:52:22.645Z,23.61
2018-04-30T09:54:49.244Z,23.72
2018-04-30T09:57:15.719Z,23.79
2018-04-30T09:59:42.044Z,23.78
2018-04-30T10:02:08.521Z,23.76
2018-04-30T10:04:35.096Z,23.75
2018-04-30T10:07:01.576Z,23.73
2018-04-30T10:09:28.158Z,23.84
2018-04-30T10:11:54.668Z,23.82
2018-04-30T10:14:21.000Z,23.95
2018-04-30T10:16:47.521Z,24.00
2018-04-30T10:25:48.470Z,24.17
2018-04-30T10:28:14.826Z,24.23
2018-04-30T10:30:41.368Z,24.35
2018-04-30T10:33:07.869Z,24.34
2018-04-30T10:35:34.457Z,24.30
2018-04-30T10:38:00.928Z,24.37
2018-04-30T10:40:27.267Z,24.37
2018-04-30T10:42:53.788Z,24.43
2018-04-30T10:45:20.172Z,24.36
2018-04-30T10:47:46.655Z,24.40
2018-04-30T10:50:13.113Z,24.43
2018-04-30T10:52:39.659Z,24.58
2018-04-30T10:55:06.240Z,24.50
2018-04-30T10:57:32.735Z,24.59
2018-04-30T10:59:59.130Z,24.67
2018-04-30T11:02:25.536Z,24.74
2018-04-30T11:07:32.938Z,24.96
2018-04-30T11:09:59.366Z,24.87
2018-04-30T11:12:25.771Z,24.97
2018-04-30T11:14:52.216Z,25.01
2018-04-30T11:17:18.671Z,25.07
2018-04-30T11:19:45.221Z,25.06
2018-04-30T11:22:11.599Z,25.15
2018-04-30T11:24:37.936Z,25.19
2018-04-30T11:27:04.342Z,25.25
2018-04-30T11:29:30.711Z,25.14
2018-04-30T11:31:57.415Z,25.17
2018-04-30T11:34:23.828Z,25.18
2018-04-30T11:36:50.190Z,25.27
2018-04-30T11:39:16.661Z,25.43
2018-04-30T11:41:43.126Z,25.50
2018-04-30T11:44:09.651Z,25.51
2018-04-30T11:46:36.234Z,25.44
2018-04-30T11:49:02.720Z,25.39
2018-04-30T11:51:29.172Z,25.42
2018-04-30T11:53:55.780Z,25.50
2018-04-30T11:56:22.205Z,25.49
2018-04-30T11:58:48.723Z,25.45
2018-04-30T12:01:15.098Z,25.43
2018-04-30T12:03:41.499Z,25.54
2018-04-30T12:06:07.919Z,25.62
2018-04-30T12:08:34.288Z,25.70
2018-04-30T12:11:00.759Z,25.71
2018-04-30T12:13:27.091Z,25.73
2018-04-30T12:15:53.602Z,25.73
2018-04-30T12:18:20.286Z,25.73
2018-04-30T12:20:46.926Z,25.89
2018-04-30T12:23:13.263Z,25.91
2018-04-30T12:25:39.760Z,25.86
2018-04-30T12:28:06.158Z,25.81
2018-04-30T12:30:32.792Z,25.87
2018-04-30T12:32:59.292Z,25.81
2018-04-30T12:35:25.752Z,25.83
2018-04-30T12:37:52.381Z,25.86
2018-04-30T12:40:18.790Z,25.91
2018-04-30T12:42:45.248Z,25.97
2018-04-30T12:45:11.696Z,25.90
2018-04-30T12:47:38.077Z,25.94
2018-04-30T12:50:04.492Z,25.96
2018-04-30T12:52:30.943Z,25.95
2018-04-30T12:54:57.466Z,25.94
2018-04-30T12:57:24.012Z,25.86
2018-04-30T12:59:50.536Z,25.86
2018-04-30T13:02:17.061Z,25.85
2018-04-30T13:04:43.496Z,25.83
2018-04-30T13:07:09.969Z,25.81
2018-04-30T13:09:36.491Z,25.89
2018-04-30T13:12:03.004Z,25.78
2018-04-30T13:14:29.541Z,25.78
2018-04-30T13:16:56.008Z,25.70
2018-04-30T13:19:22.487Z,25.72
2018-04-30T13:21:48.992Z,25.69
2018-04-30T13:24:15.342Z,25.58
2018-04-30T13:26:41.936Z,25.46
2018-04-30T13:29:08.257Z,25.50
2018-04-30T13:31:34.795Z,25.53
2018-04-30T13:34:01.513Z,25.48
2018-04-30T13:36:28.083Z,25.53
2018-04-30T13:38:54.648Z,25.50
2018-04-30T13:41:21.087Z,25.44
2018-04-30T13:43:47.583Z,25.44
2018-04-30T13:46:14.129Z,25.49
2018-04-30T13:48:40.656Z,25.51
2018-04-30T13:51:07.076Z,25.59
2018-04-30T13:53:33.424Z,25.61
2018-04-30T13:55:59.920Z,25.63
2018-04-30T13:58:26.468Z,25.65
2018-04-30T14:00:52.861Z,25.61
2018-04-30T14:03:19.193Z,25.71
2018-04-30T14:05:45.635Z,25.61
2018-04-30T14:08:12.044Z,25.56
2018-04-30T14:10:38.603Z,25.61
2018-04-30T14:13:05.103Z,25.55
2018-04-30T14:15:31.407Z,25.64
2018-04-30T14:17:57.776Z,25.59
2018-04-30T14:20:24.351Z,25.60
2018-04-30T14:22:50.668Z,25.58
2018-04-30T14:25:17.270Z,25.55
2018-04-30T14:27:43.749Z,25.52
2018-04-30T14:30:10.220Z,25.49
2018-04-30T14:32:36.633Z,25.49
2018-04-30T14:35:03.193Z,25.41
2018-04-30T14:37:29.612Z,25.43
2018-04-30T14:39:56.112Z,25.36
2018-04-30T14:42:22.578Z,25.31
2018-04-30T14:44:48.964Z,25.30
2018-04-30T14:47:15.617Z,25.38
2018-04-30T14:49:42.017Z,25.28
2018-04-30T14:52:08.472Z,25.20
2018-04-30T14:54:34.845Z,25.12
2018-04-30T14:57:01.237Z,25.17
2018-04-30T14:59:27.720Z,25.16
2018-04-30T15:01:54.160Z,25.12
2018-04-30T15:04:20.632Z,25.12
2018-04-30T15:06:47.116Z,25.13
2018-04-30T15:09:13.575Z,25.13
2018-04-30T15:11:40.037Z,25.13
2018-04-30T15:14:06.403Z,25.25
2018-04-30T15:16:32.848Z,25.19
2018-04-30T15:18:59.224Z,25.18
2018-04-30T15:24:17.785Z,25.16
2018-04-30T15:26:44.272Z,25.17
2018-04-30T15:29:10.824Z,25.15
2018-04-30T15:31:37.383Z,25.29
2018-04-30T15:34:03.863Z,25.24
2018-04-30T15:36:30.276Z,25.21
2018-04-30T15:38:56.742Z,25.26
2018-04-30T15:41:23.257Z,25.18
2018-04-30T15:46:21.791Z,25.22
2018-04-30T15:48:48.304Z,25.25
2018-04-30T15:51:14.666Z,25.26
2018-04-30T15:53:41.215Z,24.99
2018-04-30T15:56:07.672Z,24.99
2018-04-30T15:58:33.999Z,25.05
2018-04-30T16:01:00.347Z,25.01
2018-04-30T16:03:26.885Z,24.95
2018-04-30T16:05:53.284Z,24.97
2018-04-30T16:08:19.736Z,24.94
2018-04-30T16:10:46.136Z,24.92
2018-04-30T16:13:12.622Z,24.94
2018-04-30T16:15:39.329Z,24.98
2018-04-30T16:18:05.794Z,25.03
2018-04-30T16:20:32.215Z,25.02
2018-04-30T16:22:58.633Z,25.11
2018-04-30T16:25:25.001Z,25.00
2018-04-30T16:27:51.473Z,24.88
2018-04-30T16:30:17.928Z,24.81
2018-04-30T16:32:44.417Z,24.83
2018-04-30T16:35:10.899Z,24.78
2018-04-30T16:37:37.446Z,24.77
2018-04-30T16:40:03.961Z,24.78
2018-04-30T16:42:30.500Z,24.88
2018-04-30T16:44:57.048Z,24.77
2018-04-30T16:47:23.468Z,24.70
2018-04-30T16:49:49.906Z,24.75
2018-04-30T16:52:16.436Z,24.66
2018-04-30T16:54:42.852Z,24.64
2018-04-30T16:57:09.353Z,24.59
2018-04-30T16:59:35.879Z,24.55
2018-04-30T17:02:02.369Z,24.54
2018-04-30T17:04:28.909Z,24.48
2018-04-30T17:06:55.372Z,24.45
2018-04-30T17:09:21.707Z,24.51
2018-04-30T17:11:48.037Z,24.69
2018-04-30T17:14:14.374Z,24.45
2018-04-30T17:16:40.840Z,24.44
2018-04-30T17:19:07.381Z,24.35
2018-04-30T17:21:33.866Z,24.29
2018-04-30T17:24:00.236Z,24.26
2018-04-30T17:26:26.544Z,24.44
2018-04-30T17:28:52.940Z,24.23
2018-04-30T17:31:19.324Z,24.23
2018-04-30T17:33:45.654Z,24.08
2018-04-30T17:36:12.087Z,24.04
2018-04-30T17:38:38.448Z,24.01
2018-04-30T17:41:04.943Z,24.12
2018-04-30T17:43:31.405Z,24.09
2018-04-30T17:45:57.986Z,23.98
2018-04-30T17:48:24.393Z,24.04
2018-04-30T17:50:50.847Z,24.01
2018-04-30T17:53:17.321Z,23.99
2018-04-30T17:55:43.764Z,24.05
2018-04-30T17:58:10.132Z,24.02
2018-04-30T18:00:36.499Z,24.03
2018-04-30T18:03:02.828Z,23.87
2018-04-30T18:11:38.296Z,23.73
2018-04-30T18:14:05.025Z,23.57
2018-04-30T18:16:31.449Z,23.56
2018-04-30T18:18:57.833Z,23.48
2018-04-30T18:21:24.341Z,23.46
2018-04-30T18:23:51.246Z,23.50
2018-04-30T18:26:18.289Z,23.57
2018-04-30T18:28:44.904Z,23.47
2018-04-30T18:31:11.471Z,23.45
2018-04-30T18:36:51.770Z,23.45
2018-04-30T18:39:18.340Z,23.48
2018-04-30T18:41:44.779Z,23.52
2018-04-30T18:44:12.423Z,23.43
2018-04-30T18:46:39.083Z,23.37
2018-04-30T18:49:05.945Z,23.38
2018-04-30T18:51:32.749Z,23.40
2018-04-30T18:53:59.314Z,23.40
2018-04-30T18:56:26.016Z,23.33
2018-04-30T18:58:52.448Z,23.35
2018-04-30T19:01:18.917Z,23.34
2018-04-30T19:03:45.366Z,23.32
2018-04-30T19:06:11.755Z,23.29
2018-04-30T19:08:38.039Z,23.22
2018-04-30T19:11:04.548Z,23.21
2018-04-30T19:13:31.005Z,23.14
2018-04-30T19:15:57.539Z,23.18
2018-04-30T19:18:23.883Z,23.20
2018-04-30T19:20:50.246Z,23.18
2018-04-30T19:23:16.648Z,23.16
2018-04-30T19:25:43.063Z,23.21
2018-04-30T19:28:09.433Z,23.12
2018-04-30T19:30:35.975Z,23.16
2018-04-30T19:33:02.363Z,23.15
2018-04-30T19:35:28.773Z,23.14
2018-04-30T19:37:55.126Z,23.14
2018-04-30T19:40:21.572Z,23.12
2018-04-30T19:42:48.058Z,23.12
2018-04-30T19:45:14.701Z,23.12
2018-04-30T19:47:41.082Z,23.05
2018-04-30T19:50:07.467Z,23.09
2018-04-30T19:52:33.798Z,22.99
2018-04-30T19:55:00.141Z,23.03
2018-04-30T19:57:26.580Z,23.03
2018-04-30T19:59:52.931Z,23.00
2018-04-30T20:02:19.426Z,22.98
2018-04-30T20:04:45.784Z,22.97
2018-04-30T20:07:12.240Z,22.94
2018-04-30T20:09:38.643Z,22.96
2018-04-30T20:12:05.153Z,22.97
2018-04-30T20:14:31.689Z,22.96
2018-04-30T20:16:58.129Z,22.90
2018-04-30T20:19:24.695Z,22.84
2018-04-30T20:21:51.116Z,22.77
2018-04-30T20:24:17.488Z,22.71
2018-04-30T20:26:43.823Z,22.67
2018-04-30T20:29:10.253Z,22.55
2018-04-30T20:31:36.637Z,22.47
2018-04-30T20:34:03.145Z,22.37
2018-04-30T20:36:29.606Z,22.30
2018-04-30T20:38:56.008Z,22.22
2018-04-30T20:41:22.484Z,22.17
2018-04-30T20:43:48.847Z,22.15
2018-04-30T20:46:15.319Z,22.05
2018-04-30T20:48:41.647Z,21.92
2018-04-30T20:51:08.008Z,21.84
2018-04-30T20:53:34.343Z,21.84
2018-04-30T20:56:00.884Z,21.81
2018-04-30T20:58:27.324Z,21.84
2018-04-30T21:00:53.766Z,21.83
2018-04-30T21:03:20.069Z,21.79
2018-04-30T21:05:46.429Z,21.73
2018-04-30T21:08:12.789Z,21.66
2018-04-30T21:10:39.291Z,21.63
2018-04-30T21:13:05.644Z,21.58
2018-04-30T21:15:32.112Z,21.54
2018-04-30T21:17:58.515Z,21.52
2018-04-30T21:20:24.860Z,21.45
2018-04-30T21:22:51.351Z,21.43
2018-04-30T21:25:17.811Z,21.54
2018-04-30T21:27:44.227Z,21.57
2018-04-30T21:30:10.917Z,21.58
2018-04-30T21:32:37.264Z,21.56
2018-04-30T21:35:03.756Z,21.51
2018-04-30T21:37:30.108Z,21.54
2018-04-30T21:39:56.611Z,21.43
2018-04-30T21:42:23.140Z,21.38
2018-04-30T21:44:49.585Z,21.41
2018-04-30T21:47:15.967Z,21.39
2018-04-30T21:49:42.356Z,21.41
2018-04-30T21:52:08.829Z,21.45
2018-04-30T21:54:35.330Z,21.34
2018-04-30T21:57:01.757Z,21.31
2018-04-30T21:59:28.244Z,21.29
2018-04-30T22:01:54.638Z,21.25
2018-04-30T22:04:21.122Z,21.23
2018-04-30T22:06:47.590Z,21.24
2018-04-30T22:09:14.120Z,21.19
2018-04-30T22:11:40.516Z,21.16
2018-04-30T22:14:07.012Z,21.16
2018-04-30T22:16:33.568Z,21.14
2018-04-30T22:18:59.911Z,21.17
2018-04-30T22:21:26.460Z,21.11
2018-04-30T22:23:52.835Z,21.04
2018-04-30T22:26:19.291Z,20.99
2018-04-30T22:28:45.758Z,21.00
2018-04-30T22:31:12.340Z,21.03
2018-04-30T22:33:38.808Z,20.92
2018-04-30T22:36:05.328Z,20.93
2018-04-30T22:38:31.756Z,20.91
2018-04-30T22:40:58.461Z,20.89
2018-04-30T22:43:24.977Z,20.81
2018-04-30T22:45:51.500Z,20.82
2018-04-30T22:48:17.972Z,20.75
2018-04-30T22:50:44.584Z,20.63
2018-04-30T22:53:11.037Z,20.58
2018-04-30T22:55:37.552Z,20.54
2018-04-30T22:58:03.970Z,20.60
2018-04-30T23:00:30.378Z,20.60
2018-04-30T23:02:56.999Z,20.58
2018-04-30T23:05:23.540Z,20.57
2018-04-30T23:07:50.009Z,20.55
2018-04-30T23:10:16.671Z,20.55
2018-04-30T23:12:43.255Z,20.48
2018-04-30T23:15:09.722Z,20.51
2018-04-30T23:17:36.323Z,20.46
2018-04-30T23:20:02.900Z,20.40
2018-04-30T23:22:37.672Z,20.44
2018-04-30T23:25:04.189Z,20.43
2018-04-30T23:27:30.659Z,20.44
2018-04-30T23:29:57.191Z,20.39
2018-04-30T23:32:23.688Z,20.40
2018-04-30T23:34:50.232Z,20.40
2018-04-30T23:37:16.699Z,20.31
2018-04-30T23:39:43.136Z,20.24
2018-04-30T23:42:09.572Z,20.13
2018-04-30T23:44:36.004Z,20.09
2018-04-30T23:47:02.508Z,20.01
2018-04-30T23:49:28.912Z,19.98
2018-04-30T23:51:55.411Z,19.98
2018-04-30T23:54:21.902Z,19.97
2018-04-30T23:56:48.467Z,19.96
2018-04-30T23:59:14.990Z,19.94
